Search for airport 
image banner adimage banner adimage banner ad
image banner ad

IA04 - Winneshiek Medical Center

Located in Decorah, United States

ICAO - IA04, IATA -

Data provided by Airmate  

General information

Coordinates: N43°17'39" W91°46'28"
Elevation is 892 feet MSL.
Magnetic variation is 01° East
View others Airports in Iowa

Operational data

Special qualification required
Current time UTC:
Current local time:
Weather at : KDEH - Decorah Muni ( 4 km )
METAR: KDEH 150855Z AUTO 00000KT 10SM FEW048 SCT055 13/13 A3009 RMK AO2
View NOTAMs / SUP AIP / TFR affecting this airport [VIEW]
Communications frequencies: [VIEW]

Runways:

Airport contact information

Address: Decorah United States

Satellite view of IA04